Terminal Aerodrome Forecast
Issued by NWS

Home | Current Version | Previous Version | Text Only | Print | Product List | Glossary On
Versions: 1 2 3 4 5 6 7 8 9 10 11 12 13 14 15 16 17 18 19 20 21
000
FTUS43 KDLH 250831 AAA
TAFHIB
TAF AMD
KHIB 250831Z 2509/2606 13005KT P6SM SCT250
     FM251200 16004KT 5SM BR VCSH BKN030
     FM251500 17008KT P6SM BKN025
     FM252300 20006KT P6SM VCTS BKN015CB
     FM260200 22004KT 6SM BR BKN015=

USA.gov is the U.S. government's official web portal to all federal, state and local government web resources and services.